createdAt,value
2022-10-11T00:01:36.946Z,6.33
2022-10-11T00:04:16.120Z,6.26
2022-10-11T00:06:55.853Z,6.25
2022-10-11T00:09:34.466Z,5.63
2022-10-11T00:12:13.804Z,6.19
2022-10-11T00:14:53.641Z,5.96
2022-10-11T00:17:32.448Z,6.05
2022-10-11T00:20:13.133Z,5.99
2022-10-11T00:22:53.117Z,5.89
2022-10-11T00:25:31.230Z,5.35
2022-10-11T00:28:11.111Z,5.53
2022-10-11T00:30:51.227Z,5.88
2022-10-11T00:33:29.159Z,4.97
2022-10-11T00:36:09.713Z,5.71
2022-10-11T00:38:50.239Z,5.94
2022-10-11T00:41:28.517Z,5.27
2022-10-11T00:44:16.100Z,5.99
2022-10-11T00:47:02.010Z,6.03
2022-10-11T00:50:09.721Z,6.05
2022-10-11T00:52:59.571Z,6.08
2022-10-11T00:55:54.267Z,5.84
2022-10-11T00:58:36.489Z,6.12
2022-10-11T01:01:16.085Z,6.10
2022-10-11T01:03:59.845Z,6.01
2022-10-11T01:06:40.618Z,6.15
2022-10-11T01:09:20.376Z,6.08
2022-10-11T01:12:02.940Z,6.15
2022-10-11T01:15:20.505Z,6.00
2022-10-11T01:18:17.126Z,6.18
2022-10-11T01:21:34.413Z,6.20
2022-10-11T01:24:49.802Z,6.15
2022-10-11T01:27:55.579Z,6.12
2022-10-11T01:30:37.937Z,6.05
2022-10-11T01:33:35.694Z,6.11
2022-10-11T01:36:31.863Z,6.03
2022-10-11T01:39:42.538Z,5.77
2022-10-11T01:42:22.813Z,5.80
2022-10-11T01:45:04.688Z,5.31
2022-10-11T01:47:45.755Z,5.08
2022-10-11T01:50:39.731Z,5.56
2022-10-11T01:53:29.688Z,5.13
2022-10-11T01:56:45.304Z,5.62
2022-10-11T01:59:43.970Z,5.52
2022-10-11T02:02:37.714Z,5.48
2022-10-11T02:05:38.249Z,5.34
2022-10-11T02:08:30.142Z,5.39
2022-10-11T02:11:22.729Z,5.24
2022-10-11T02:14:09.311Z,5.35
2022-10-11T02:16:54.462Z,5.14
2022-10-11T02:19:38.629Z,5.33
2022-10-11T02:22:30.397Z,5.20
2022-10-11T02:25:16.985Z,4.44
2022-10-11T02:27:59.839Z,5.22
2022-10-11T02:30:41.139Z,4.94
2022-10-11T02:33:31.661Z,5.18
2022-10-11T02:37:37.218Z,5.21
2022-10-11T02:40:23.120Z,5.22
2022-10-11T02:43:13.838Z,4.97
2022-10-11T02:45:58.867Z,5.16
2022-10-11T02:48:39.909Z,5.15
2022-10-11T02:51:20.190Z,5.10
2022-10-11T02:54:01.893Z,5.15
2022-10-11T02:56:43.883Z,4.47
2022-10-11T02:59:22.837Z,5.13
2022-10-11T03:02:01.208Z,5.16
2022-10-11T03:04:40.761Z,5.22
2022-10-11T03:07:19.086Z,5.30
2022-10-11T03:09:57.325Z,5.31
2022-10-11T03:12:36.925Z,4.93
2022-10-11T03:15:16.956Z,5.34
2022-10-11T03:17:56.868Z,5.35
2022-10-11T03:20:35.076Z,5.11
2022-10-11T03:23:13.492Z,4.70
2022-10-11T03:25:52.201Z,5.08
2022-10-11T03:28:32.766Z,4.60
2022-10-11T03:31:12.403Z,5.12
2022-10-11T03:33:52.204Z,4.40
2022-10-11T03:36:32.105Z,5.02
2022-10-11T03:39:14.008Z,4.88
2022-10-11T03:41:53.231Z,4.93
2022-10-11T03:45:04.856Z,5.09
2022-10-11T03:47:45.411Z,4.94
2022-10-11T03:50:25.191Z,5.04
2022-10-11T03:53:05.084Z,4.99
2022-10-11T03:55:45.575Z,4.83
2022-10-11T03:58:24.831Z,4.91
2022-10-11T04:01:03.087Z,4.97
2022-10-11T04:03:41.363Z,4.74
2022-10-11T04:06:21.443Z,5.03
2022-10-11T04:08:59.610Z,5.01
2022-10-11T04:11:38.852Z,4.51
2022-10-11T04:14:17.330Z,4.94
2022-10-11T04:17:00.239Z,5.01
2022-10-11T04:19:39.971Z,4.47
2022-10-11T04:22:19.656Z,5.16
2022-10-11T04:25:26.047Z,5.16
2022-10-11T04:28:04.149Z,5.25
2022-10-11T04:30:42.293Z,4.41
2022-10-11T04:33:21.865Z,4.98
2022-10-11T04:36:02.032Z,4.81
2022-10-11T04:38:40.017Z,5.14
2022-10-11T04:41:18.416Z,5.24
2022-10-11T04:43:57.952Z,4.97
2022-10-11T04:46:36.255Z,5.22
2022-10-11T04:49:16.399Z,5.32
2022-10-11T04:51:55.959Z,5.30
2022-10-11T04:54:36.759Z,5.37
2022-10-11T04:57:15.532Z,5.41
2022-10-11T04:59:55.336Z,5.34
2022-10-11T05:02:35.041Z,5.46
2022-10-11T05:05:17.874Z,5.46
2022-10-11T05:07:58.422Z,5.38
2022-10-11T05:10:36.193Z,5.44
2022-10-11T05:13:17.907Z,5.61
2022-10-11T05:15:57.411Z,5.73
2022-10-11T05:18:37.294Z,5.56
2022-10-11T05:21:22.121Z,5.73
2022-10-11T05:24:01.496Z,5.86
2022-10-11T05:26:41.304Z,5.71
2022-10-11T05:29:19.605Z,5.16
2022-10-11T05:31:59.331Z,5.95
2022-10-11T05:34:37.753Z,6.07
2022-10-11T05:37:15.996Z,6.17
2022-10-11T05:39:55.606Z,6.28
2022-10-11T05:42:35.368Z,6.44
2022-10-11T05:45:13.687Z,6.55
2022-10-11T05:47:51.935Z,6.46
2022-10-11T05:50:32.070Z,6.48
2022-10-11T05:53:39.888Z,6.48
2022-10-11T05:56:22.151Z,6.41
2022-10-11T05:59:02.652Z,6.81
2022-10-11T06:01:43.549Z,6.97
2022-10-11T06:04:21.792Z,7.10
2022-10-11T06:07:01.284Z,7.15
2022-10-11T06:09:41.138Z,7.21
2022-10-11T06:12:21.850Z,7.16
2022-10-11T06:15:28.208Z,7.54
2022-10-11T06:18:26.131Z,7.67
2022-10-11T06:21:24.538Z,7.69
2022-10-11T06:24:02.804Z,7.77
2022-10-11T06:26:40.885Z,7.75
2022-10-11T06:29:37.135Z,7.84
2022-10-11T06:32:33.851Z,8.22
2022-10-11T06:35:41.614Z,8.66
2022-10-11T06:38:44.723Z,9.71
2022-10-11T06:41:25.714Z,10.39
2022-10-11T06:44:28.757Z,11.44
2022-10-11T06:47:24.858Z,12.62
2022-10-11T06:50:05.747Z,12.27
2022-10-11T06:52:43.964Z,12.76
2022-10-11T06:55:22.110Z,13.68
2022-10-11T06:58:02.467Z,15.43
2022-10-11T07:01:05.742Z,16.14
2022-10-11T07:03:48.537Z,15.90
2022-10-11T07:06:42.186Z,15.43
2022-10-11T07:09:39.138Z,14.63
2022-10-11T07:12:17.143Z,14.70
2022-10-11T07:15:17.257Z,14.15
2022-10-11T07:17:55.776Z,13.75
2022-10-11T07:21:10.640Z,13.06
2022-10-11T07:24:07.728Z,13.13
2022-10-11T07:27:01.820Z,14.20
2022-10-11T07:30:40.394Z,14.83
2022-10-11T07:33:18.659Z,14.74
2022-10-11T07:36:26.903Z,14.10
2022-10-11T07:39:39.534Z,13.69
2022-10-11T07:42:18.870Z,13.26
2022-10-11T07:45:14.960Z,12.92
2022-10-11T07:47:52.799Z,13.25
2022-10-11T07:50:35.804Z,13.55
2022-10-11T07:53:14.141Z,13.03
2022-10-11T07:55:54.272Z,13.56
2022-10-11T07:59:05.557Z,13.53
2022-10-11T08:01:43.884Z,14.13
2022-10-11T08:04:22.140Z,15.19
2022-10-11T08:07:47.967Z,17.01
2022-10-11T08:10:27.289Z,18.71
2022-10-11T08:13:26.790Z,20.06
2022-10-11T08:16:13.414Z,21.62
2022-10-11T08:19:25.405Z,23.16
2022-10-11T08:22:30.916Z,24.32
2022-10-11T08:25:09.491Z,24.72
2022-10-11T08:28:07.350Z,25.05
2022-10-11T08:30:51.495Z,25.13
2022-10-11T08:34:02.947Z,25.65
2022-10-11T08:37:02.565Z,26.54
2022-10-11T08:39:55.894Z,26.44
2022-10-11T08:43:05.932Z,26.46
2022-10-11T08:45:51.027Z,26.26
2022-10-11T08:48:47.611Z,26.65
2022-10-11T08:51:38.574Z,26.82
2022-10-11T08:54:42.802Z,26.90
2022-10-11T08:57:18.459Z,27.76
2022-10-11T09:00:02.639Z,27.59
2022-10-11T09:03:09.670Z,27.19
2022-10-11T09:05:52.055Z,26.59
2022-10-11T09:08:30.588Z,25.67
2022-10-11T09:11:05.265Z,23.98
2022-10-11T09:13:55.452Z,22.91
2022-10-11T09:16:54.769Z,21.16
2022-10-11T09:19:36.902Z,19.65
2022-10-11T09:22:15.046Z,20.07
2022-10-11T09:24:54.066Z,19.76
2022-10-11T09:27:43.699Z,19.27
2022-10-11T09:30:16.580Z,18.17
2022-10-11T09:32:58.499Z,18.29
2022-10-11T09:35:25.518Z,17.97
2022-10-11T09:38:00.859Z,17.65
2022-10-11T09:40:47.939Z,17.68
2022-10-11T09:43:15.333Z,17.44
2022-10-11T09:45:49.260Z,17.52
2022-10-11T09:48:37.588Z,17.48
2022-10-11T09:51:15.311Z,17.18
2022-10-11T09:53:59.292Z,16.79
2022-10-11T09:56:29.109Z,16.16
2022-10-11T09:59:24.098Z,16.45
2022-10-11T10:02:16.819Z,16.12
2022-10-11T10:05:06.507Z,16.18
2022-10-11T10:07:36.771Z,16.13
2022-10-11T10:10:28.351Z,16.09
2022-10-11T10:12:59.056Z,15.77
2022-10-11T10:15:35.067Z,15.89
2022-10-11T10:18:06.632Z,15.67
2022-10-11T10:20:36.001Z,15.77
2022-10-11T10:23:10.173Z,15.58
2022-10-11T10:25:43.269Z,15.09
2022-10-11T10:28:37.041Z,15.47
2022-10-11T10:31:04.040Z,15.36
2022-10-11T10:33:34.611Z,15.12
2022-10-11T10:36:15.513Z,15.00
2022-10-11T10:38:52.297Z,15.00
2022-10-11T10:41:19.710Z,15.16
2022-10-11T10:43:54.530Z,14.97
2022-10-11T10:46:47.661Z,14.87
2022-10-11T10:49:53.752Z,14.39
2022-10-11T10:52:37.932Z,14.70
2022-10-11T10:55:14.131Z,14.04
2022-10-11T10:57:59.584Z,15.00
2022-10-11T11:00:31.859Z,14.89
2022-10-11T11:03:02.495Z,14.77
2022-10-11T11:05:34.301Z,14.89
2022-10-11T11:08:33.501Z,14.86
2022-10-11T11:11:33.678Z,14.68
2022-10-11T11:14:19.498Z,15.11
2022-10-11T11:17:02.358Z,15.52
2022-10-11T11:20:04.273Z,15.51
2022-10-11T11:22:37.244Z,15.39
2022-10-11T11:25:32.208Z,15.40
2022-10-11T11:28:14.129Z,15.39
2022-10-11T11:30:55.885Z,15.61
2022-10-11T11:33:50.841Z,15.68
2022-10-11T11:36:27.928Z,15.64
2022-10-11T11:39:04.643Z,15.75
2022-10-11T11:41:43.264Z,15.58
2022-10-11T11:44:27.577Z,15.41
2022-10-11T11:46:57.788Z,14.70
2022-10-11T11:49:36.738Z,14.45
2022-10-11T11:52:13.139Z,14.96
2022-10-11T11:55:04.146Z,14.80
2022-10-11T11:58:23.486Z,14.63
2022-10-11T12:01:30.258Z,14.45
2022-10-11T12:04:05.271Z,14.21
2022-10-11T12:06:35.952Z,14.22
2022-10-11T12:09:16.979Z,14.26
2022-10-11T12:11:57.426Z,14.19
2022-10-11T12:14:44.928Z,14.20
2022-10-11T12:17:12.006Z,14.24
2022-10-11T12:19:42.133Z,14.02
2022-10-11T12:22:27.884Z,13.96
2022-10-11T12:24:57.127Z,13.84
2022-10-11T12:27:45.801Z,13.70
2022-10-11T12:30:53.594Z,13.82
2022-10-11T12:33:45.526Z,13.57
2022-10-11T12:36:36.922Z,13.81
2022-10-11T12:39:19.433Z,13.79
2022-10-11T12:41:51.755Z,13.69
2022-10-11T12:44:18.689Z,13.68
2022-10-11T12:46:51.680Z,13.64
2022-10-11T12:49:33.522Z,13.26
2022-10-11T12:52:32.416Z,13.55
2022-10-11T12:55:11.609Z,13.51
2022-10-11T12:58:08.864Z,13.55
2022-10-11T13:00:43.821Z,13.47
2022-10-11T13:03:43.536Z,13.47
2022-10-11T13:06:25.178Z,13.38
2022-10-11T13:09:10.882Z,12.85
2022-10-11T13:12:04.290Z,13.04
2022-10-11T13:14:55.137Z,13.26
2022-10-11T13:17:27.162Z,13.21
2022-10-11T13:20:06.175Z,13.20
2022-10-11T13:22:35.633Z,13.09
2022-10-11T13:25:06.186Z,13.11
2022-10-11T13:27:33.594Z,12.96
2022-10-11T13:30:02.957Z,13.14
2022-10-11T13:32:32.524Z,13.05
2022-10-11T13:35:07.013Z,12.54
2022-10-11T13:37:47.747Z,13.10
2022-10-11T13:40:18.608Z,12.80
2022-10-11T13:42:48.640Z,12.95
2022-10-11T13:45:19.470Z,12.98
2022-10-11T13:47:50.462Z,13.04
2022-10-11T13:50:31.819Z,12.99
2022-10-11T13:53:11.640Z,12.95
2022-10-11T13:55:53.710Z,12.74
2022-10-11T13:58:27.251Z,12.80
2022-10-11T14:01:04.088Z,12.60
2022-10-11T14:04:05.354Z,12.72
2022-10-11T14:06:53.035Z,12.52
2022-10-11T14:09:35.390Z,12.76
2022-10-11T14:12:43.275Z,12.71
2022-10-11T14:15:31.311Z,12.05
2022-10-11T14:18:00.340Z,12.30
2022-10-11T14:20:40.044Z,12.20
2022-10-11T14:23:07.453Z,12.23
2022-10-11T14:25:34.717Z,11.54
2022-10-11T14:28:02.061Z,12.19
2022-10-11T14:30:31.743Z,12.11
2022-10-11T14:33:01.529Z,11.32
2022-10-11T14:35:32.833Z,11.89
2022-10-11T14:38:00.255Z,11.83
2022-10-11T14:40:30.504Z,11.81
2022-10-11T14:42:57.850Z,11.38
2022-10-11T14:45:25.203Z,11.58
2022-10-11T14:47:52.379Z,11.36
2022-10-11T14:50:41.052Z,11.56
2022-10-11T14:53:10.463Z,11.35
2022-10-11T14:55:39.877Z,11.30
2022-10-11T14:58:08.820Z,11.26
2022-10-11T15:00:36.770Z,11.20
2022-10-11T15:03:05.320Z,10.84
2022-10-11T15:05:34.142Z,11.06
2022-10-11T15:08:06.298Z,10.32
2022-10-11T15:10:40.910Z,10.33
2022-10-11T15:13:09.434Z,10.87
2022-10-11T15:15:40.923Z,10.64
2022-10-11T15:18:12.582Z,10.71
2022-10-11T15:20:42.964Z,10.45
2022-10-11T15:23:10.926Z,10.64
2022-10-11T15:25:40.622Z,10.47
2022-10-11T15:28:13.987Z,10.57
2022-10-11T15:30:41.907Z,9.75
2022-10-11T15:33:09.231Z,9.02
2022-10-11T15:35:36.197Z,9.93
2022-10-11T15:38:03.373Z,10.48
2022-10-11T15:40:34.149Z,10.25
2022-10-11T15:43:02.022Z,10.53
2022-10-11T15:45:29.943Z,10.28
2022-10-11T15:47:57.210Z,10.34
2022-10-11T15:50:41.526Z,9.82
2022-10-11T15:53:16.358Z,10.26
2022-10-11T15:55:46.499Z,10.04
2022-10-11T15:58:15.939Z,10.05
2022-10-11T16:00:44.816Z,9.99
2022-10-11T16:03:13.787Z,9.82
2022-10-11T16:05:43.333Z,10.12
2022-10-11T16:08:11.078Z,9.67
2022-10-11T16:10:38.678Z,9.81
2022-10-11T16:13:06.175Z,9.91
2022-10-11T16:15:34.334Z,9.83
2022-10-11T16:18:02.419Z,8.64
2022-10-11T16:20:29.610Z,9.92
2022-10-11T16:22:57.180Z,9.11
2022-10-11T16:25:25.313Z,9.86
2022-10-11T16:27:52.586Z,9.78
2022-10-11T16:30:20.248Z,9.77
2022-10-11T16:32:47.940Z,9.53
2022-10-11T16:35:16.658Z,9.53
2022-10-11T16:37:44.167Z,9.47
2022-10-11T16:40:15.908Z,9.54
2022-10-11T16:42:44.535Z,9.67
2022-10-11T16:45:12.874Z,9.60
2022-10-11T16:47:40.865Z,9.29
2022-10-11T16:50:08.551Z,9.45
2022-10-11T16:52:35.686Z,9.61
2022-10-11T16:55:03.411Z,9.25
2022-10-11T16:57:30.821Z,9.47
2022-10-11T16:59:57.819Z,9.16
2022-10-11T17:02:32.081Z,9.31
2022-10-11T17:04:59.439Z,8.58
2022-10-11T17:07:26.894Z,9.05
2022-10-11T17:09:54.163Z,9.10
2022-10-11T17:12:23.305Z,9.13
2022-10-11T17:14:51.406Z,9.14
2022-10-11T17:17:19.195Z,9.05
2022-10-11T17:19:47.817Z,9.15
2022-10-11T17:22:18.919Z,9.17
2022-10-11T17:24:46.122Z,9.16
2022-10-11T17:27:13.382Z,8.98
2022-10-11T17:29:40.421Z,9.18
2022-10-11T17:32:07.504Z,9.16
2022-10-11T17:34:34.765Z,9.04
2022-10-11T17:37:02.060Z,9.01
2022-10-11T17:39:29.144Z,9.21
2022-10-11T17:41:56.209Z,9.05
2022-10-11T17:44:23.399Z,9.10
2022-10-11T17:46:51.761Z,9.25
2022-10-11T17:49:18.885Z,8.90
2022-10-11T17:51:46.131Z,9.14
2022-10-11T17:54:13.382Z,9.08
2022-10-11T17:56:41.873Z,8.94
2022-10-11T17:59:18.883Z,8.61
2022-10-11T18:01:45.950Z,9.03
2022-10-11T18:04:16.900Z,9.01
2022-10-11T18:06:46.930Z,8.96
2022-10-11T18:09:16.547Z,8.92
2022-10-11T18:11:43.830Z,8.89
2022-10-11T18:14:11.301Z,8.39
2022-10-11T18:16:39.003Z,8.60
2022-10-11T18:19:10.539Z,8.64
2022-10-11T18:21:38.135Z,8.49
2022-10-11T18:24:12.683Z,8.36
2022-10-11T18:26:40.018Z,8.45
2022-10-11T18:29:07.091Z,8.26
2022-10-11T18:31:35.402Z,7.81
2022-10-11T18:34:04.437Z,8.21
2022-10-11T18:36:32.891Z,8.12
2022-10-11T18:39:07.033Z,8.09
2022-10-11T18:41:35.441Z,8.08
2022-10-11T18:44:06.032Z,8.13
2022-10-11T18:46:33.622Z,8.11
2022-10-11T18:49:02.230Z,8.22
2022-10-11T18:51:32.337Z,8.17
2022-10-11T18:54:00.204Z,8.13
2022-10-11T18:56:51.853Z,8.16
2022-10-11T18:59:20.959Z,8.18
2022-10-11T19:01:52.137Z,8.17
2022-10-11T19:04:19.775Z,8.14
2022-10-11T19:06:48.832Z,8.17
2022-10-11T19:09:25.961Z,8.06
2022-10-11T19:11:53.959Z,8.21
2022-10-11T19:14:26.023Z,8.04
2022-10-11T19:16:53.326Z,7.76
2022-10-11T19:19:25.159Z,7.91
2022-10-11T19:21:52.486Z,7.79
2022-10-11T19:24:21.949Z,7.70
2022-10-11T19:26:49.477Z,7.67
2022-10-11T19:29:20.381Z,7.58
2022-10-11T19:31:53.003Z,7.64
2022-10-11T19:34:21.440Z,7.51
2022-10-11T19:36:50.845Z,7.50
2022-10-11T19:39:21.036Z,7.65
2022-10-11T19:41:48.333Z,7.64
2022-10-11T19:44:16.424Z,6.99
2022-10-11T19:46:51.988Z,7.38
2022-10-11T19:49:23.990Z,6.97
2022-10-11T19:51:52.347Z,7.22
2022-10-11T19:54:19.981Z,7.23
2022-10-11T19:56:47.213Z,7.16
2022-10-11T19:59:16.550Z,7.30
2022-10-11T20:01:49.331Z,7.15
2022-10-11T20:04:46.897Z,7.29
2022-10-11T20:07:06.889Z,7.45
2022-10-11T20:09:33.998Z,7.27
2022-10-11T20:12:01.006Z,7.28
2022-10-11T20:14:28.128Z,7.24
2022-10-11T20:16:55.323Z,7.01
2022-10-11T20:19:26.453Z,7.03
2022-10-11T20:21:55.426Z,6.74
2022-10-11T20:24:22.648Z,6.57
2022-10-11T20:26:49.717Z,6.53
2022-10-11T20:29:16.965Z,6.87
2022-10-11T20:31:44.072Z,6.12
2022-10-11T20:34:13.393Z,6.78
2022-10-11T20:36:40.491Z,6.24
2022-10-11T20:39:07.953Z,6.31
2022-10-11T20:41:37.307Z,6.76
2022-10-11T20:44:05.076Z,6.32
2022-10-11T20:46:34.190Z,6.69
2022-10-11T20:49:04.173Z,6.27
2022-10-11T20:51:33.779Z,6.63
2022-10-11T20:54:02.314Z,6.61
2022-10-11T20:56:30.023Z,6.25
2022-10-11T20:58:58.325Z,6.46
2022-10-11T21:01:31.813Z,6.33
2022-10-11T21:04:00.400Z,6.29
2022-10-11T21:06:29.072Z,5.98
2022-10-11T21:08:56.927Z,6.48
2022-10-11T21:11:33.768Z,5.52
2022-10-11T21:14:04.230Z,6.35
2022-10-11T21:16:32.639Z,6.33
2022-10-11T21:19:01.255Z,6.30
2022-10-11T21:21:29.571Z,6.05
2022-10-11T21:24:01.361Z,6.27
2022-10-11T21:26:30.145Z,6.16
2022-10-11T21:28:59.385Z,6.12
2022-10-11T21:31:32.727Z,6.15
2022-10-11T21:34:01.330Z,6.03
2022-10-11T21:36:28.511Z,6.03
2022-10-11T21:38:56.309Z,5.99
2022-10-11T21:41:25.991Z,5.82
2022-10-11T21:43:53.267Z,5.69
2022-10-11T21:46:22.910Z,5.80
2022-10-11T21:48:50.701Z,5.89
2022-10-11T21:51:23.067Z,5.96
2022-10-11T21:53:50.481Z,5.55
2022-10-11T21:56:18.120Z,5.97
2022-10-11T21:58:49.378Z,5.92
2022-10-11T22:01:18.064Z,5.85
2022-10-11T22:03:46.223Z,5.83
2022-10-11T22:06:14.172Z,5.34
2022-10-11T22:08:42.367Z,5.77
2022-10-11T22:11:09.765Z,5.81
2022-10-11T22:13:37.141Z,5.81
2022-10-11T22:16:10.186Z,5.75
2022-10-11T22:18:38.234Z,5.74
2022-10-11T22:21:08.215Z,5.60
2022-10-11T22:23:35.590Z,5.63
2022-10-11T22:26:07.657Z,5.67
2022-10-11T22:28:35.273Z,5.54
2022-10-11T22:31:04.583Z,5.70
2022-10-11T22:33:31.922Z,5.70
2022-10-11T22:36:01.141Z,4.65
2022-10-11T22:38:28.823Z,5.66
2022-10-11T22:40:58.875Z,5.69
2022-10-11T22:43:26.128Z,5.55
2022-10-11T22:45:53.313Z,5.60
2022-10-11T22:48:20.559Z,5.59
2022-10-11T22:50:47.745Z,5.51
2022-10-11T22:53:15.397Z,4.91
2022-10-11T22:55:42.402Z,5.30
2022-10-11T22:58:09.683Z,5.24
2022-10-11T23:00:37.396Z,5.39
2022-10-11T23:03:04.911Z,5.35
2022-10-11T23:05:31.987Z,5.42
2022-10-11T23:07:59.070Z,5.36
2022-10-11T23:10:26.139Z,5.43
2022-10-11T23:12:53.091Z,5.17
2022-10-11T23:15:20.305Z,5.19
2022-10-11T23:17:47.550Z,4.87
2022-10-11T23:20:14.557Z,5.38
2022-10-11T23:22:41.557Z,4.66
2022-10-11T23:25:09.127Z,5.20
2022-10-11T23:27:38.014Z,5.29
2022-10-11T23:30:06.085Z,5.27
2022-10-11T23:32:33.059Z,4.78
2022-10-11T23:35:00.107Z,5.14
2022-10-11T23:37:27.261Z,5.14
2022-10-11T23:39:54.265Z,5.25
2022-10-11T23:42:21.200Z,5.25
2022-10-11T23:44:48.180Z,5.25
2022-10-11T23:47:15.225Z,5.27
2022-10-11T23:49:42.180Z,5.27
2022-10-11T23:52:09.313Z,5.27
2022-10-11T23:54:36.338Z,5.28
2022-10-11T23:57:03.308Z,5.29
2022-10-11T23:59:30.400Z,5.01
